Terminal Aerodrome Forecast
Issued by NWS Riverton, WY

Home | Current Version | Previous Version | Text Only | Print | Product List | Glossary On
Versions: 1 2 3 4 5 6 7 8 9 10 11 12 13 14 15
000
FTUS45 KRIW 291100
TAFRIW
TAF
KRIW 291121Z 2912/3012 01006KT P6SM SCT110
     FM291500 VRB05KT P6SM FEW120
     FM292000 VRB06KT P6SM SCT090
     FM301000 26007KT P6SM SCT100 BKN200=

USA.gov is the U.S. government's official web portal to all federal, state and local government web resources and services.